createdAt,value
2022-08-20T00:04:14.890Z,97982.56
2022-08-20T00:34:19.319Z,97978.28
2022-08-20T01:04:24.840Z,97992.81
2022-08-20T01:34:29.318Z,97991.63
2022-08-20T02:04:33.497Z,97985.00
2022-08-20T02:34:37.613Z,97998.28
2022-08-20T03:04:42.800Z,97995.50
2022-08-20T03:34:46.842Z,98008.75
2022-08-20T04:29:04.490Z,98033.50
2022-08-20T04:59:09.214Z,98041.75
2022-08-20T05:29:13.349Z,98055.44
2022-08-20T05:59:21.077Z,98071.94
2022-08-20T06:29:28.559Z,98085.63
2022-08-20T06:59:32.747Z,98078.34
2022-08-20T07:29:50.876Z,98100.66
2022-08-20T07:59:55.928Z,98115.09
2022-08-20T08:30:00.066Z,98109.97
2022-08-20T09:00:09.829Z,98112.09
2022-08-20T09:30:15.576Z,98101.56
2022-08-20T10:00:22.505Z,98112.59
2022-08-20T10:30:26.956Z,98111.25
2022-08-20T11:00:31.055Z,98103.28
2022-08-20T11:30:37.046Z,98101.09
2022-08-20T12:00:41.592Z,98105.78
2022-08-20T12:30:45.769Z,98086.56
2022-08-20T13:00:50.612Z,98097.09
2022-08-20T13:30:55.378Z,98087.59
2022-08-20T14:00:59.706Z,98090.06
2022-08-20T14:31:03.930Z,98095.41
2022-08-20T15:01:08.435Z,98091.84
2022-08-20T15:31:13.104Z,98104.16
2022-08-20T16:01:27.138Z,98091.63
2022-08-20T16:31:40.804Z,98102.00
2022-08-20T17:01:45.971Z,98107.34
2022-08-20T17:31:52.947Z,98116.16
2022-08-20T18:01:59.741Z,98135.69
2022-08-20T18:32:06.126Z,98151.78
2022-08-20T19:02:22.099Z,98172.56
2022-08-20T19:32:31.160Z,98173.78
2022-08-20T20:02:36.061Z,98187.63
2022-08-20T20:32:43.842Z,98169.72
2022-08-20T21:02:48.631Z,98182.28
2022-08-20T21:32:53.178Z,98187.06
2022-08-20T22:02:57.729Z,98186.16
2022-08-20T22:33:03.830Z,98197.09
2022-08-20T23:03:08.451Z,98189.88
2022-08-20T23:33:12.615Z,98181.63
